createdAt,value
2017-12-16T00:00:31.551Z,0
2017-12-16T00:01:40.778Z,0
2017-12-16T00:02:49.720Z,0
2017-12-16T00:03:58.667Z,0
2017-12-16T00:05:07.616Z,0
2017-12-16T00:06:16.818Z,0
2017-12-16T00:07:25.513Z,0
2017-12-16T00:08:34.797Z,0
2017-12-16T00:09:44.286Z,0
2017-12-16T00:10:53.488Z,0
2017-12-16T00:12:02.449Z,0
2017-12-16T00:13:13.096Z,0
2017-12-16T00:14:22.573Z,0
2017-12-16T00:15:31.541Z,0
2017-12-16T00:16:41.427Z,0
2017-12-16T00:17:50.639Z,0
2017-12-16T00:18:59.881Z,0
2017-12-16T00:20:08.887Z,0
2017-12-16T00:21:18.165Z,0
2017-12-16T00:22:27.402Z,0
2017-12-16T00:23:36.610Z,0
2017-12-16T00:24:45.580Z,0
2017-12-16T00:25:54.528Z,0
2017-12-16T00:27:03.230Z,0
2017-12-16T00:28:11.994Z,0
2017-12-16T00:29:22.156Z,0
2017-12-16T00:30:31.905Z,0
2017-12-16T00:31:40.854Z,0
2017-12-16T00:32:49.809Z,0
2017-12-16T00:33:59.021Z,0
2017-12-16T00:35:09.024Z,0
2017-12-16T00:36:18.515Z,0
2017-12-16T00:37:27.847Z,0
2017-12-16T00:38:37.385Z,0
2017-12-16T00:39:46.348Z,0
2017-12-16T00:40:55.313Z,0
2017-12-16T00:42:04.645Z,0
2017-12-16T00:43:13.859Z,0
2017-12-16T00:44:23.018Z,0
2017-12-16T00:45:31.980Z,0
2017-12-16T00:46:40.965Z,0
2017-12-16T00:47:49.646Z,0
2017-12-16T00:48:58.640Z,0
2017-12-16T00:50:08.154Z,0
2017-12-16T00:51:17.407Z,0
2017-12-16T00:52:26.555Z,0
2017-12-16T00:53:36.150Z,0
2017-12-16T00:54:45.500Z,0
2017-12-16T00:55:54.479Z,0
2017-12-16T00:57:04.004Z,0
2017-12-16T00:58:13.754Z,0
2017-12-16T00:59:22.442Z,0
2017-12-16T01:00:31.397Z,0
2017-12-16T01:01:40.336Z,0
2017-12-16T01:02:49.585Z,0
2017-12-16T01:03:58.799Z,0
2017-12-16T01:05:08.292Z,0
2017-12-16T01:06:17.521Z,0
2017-12-16T01:07:26.474Z,0
2017-12-16T01:08:35.418Z,0
2017-12-16T01:09:44.381Z,0
2017-12-16T01:10:53.091Z,0
2017-12-16T01:12:01.776Z,0
2017-12-16T01:13:10.994Z,0
2017-12-16T01:14:20.814Z,0
2017-12-16T01:15:30.028Z,0
2017-12-16T01:16:39.251Z,0
2017-12-16T01:17:48.211Z,0
2017-12-16T01:18:56.902Z,0
2017-12-16T01:20:05.856Z,0
2017-12-16T01:21:15.074Z,0
2017-12-16T01:22:24.827Z,0
2017-12-16T01:23:33.520Z,0
2017-12-16T01:24:43.017Z,0
2017-12-16T01:25:51.992Z,0
2017-12-16T01:27:01.202Z,0
2017-12-16T01:28:10.720Z,0
2017-12-16T01:29:20.216Z,0
2017-12-16T01:30:29.427Z,0
2017-12-16T01:31:38.924Z,0
2017-12-16T01:32:48.124Z,0
2017-12-16T01:33:57.085Z,0
2017-12-16T01:35:05.793Z,0
2017-12-16T01:36:14.484Z,0
2017-12-16T01:37:23.704Z,0
2017-12-16T01:38:32.932Z,0
2017-12-16T01:39:42.159Z,0
2017-12-16T01:40:51.630Z,0
2017-12-16T01:42:00.849Z,0
2017-12-16T01:43:10.074Z,0
2017-12-16T01:44:19.818Z,0
2017-12-16T01:45:29.051Z,0
2017-12-16T01:46:37.743Z,0
2017-12-16T01:47:46.706Z,0
2017-12-16T01:48:55.930Z,0
2017-12-16T01:50:04.892Z,0
2017-12-16T01:51:13.838Z,0
2017-12-16T01:52:23.329Z,0
2017-12-16T01:53:32.290Z,0
2017-12-16T01:54:41.774Z,0
2017-12-16T01:55:51.280Z,0
2017-12-16T01:57:00.494Z,0
2017-12-16T01:58:09.690Z,0
2017-12-16T01:59:19.164Z,0
2017-12-16T02:00:28.376Z,0
2017-12-16T02:01:37.867Z,0
2017-12-16T02:02:47.095Z,0
2017-12-16T02:03:56.072Z,0
2017-12-16T02:05:05.285Z,0
2017-12-16T02:06:14.492Z,0
2017-12-16T02:07:24.276Z,0
2017-12-16T02:08:33.960Z,0
2017-12-16T02:09:43.214Z,0
2017-12-16T02:10:52.231Z,0
2017-12-16T02:12:00.923Z,0
2017-12-16T02:13:09.862Z,0
2017-12-16T02:14:19.112Z,0
2017-12-16T02:15:28.591Z,0
2017-12-16T02:16:37.279Z,0
2017-12-16T02:17:46.491Z,0
2017-12-16T02:18:55.437Z,0
2017-12-16T02:20:04.378Z,0
2017-12-16T02:21:13.583Z,0
2017-12-16T02:22:22.806Z,0
2017-12-16T02:23:32.340Z,0
2017-12-16T02:24:41.336Z,0
2017-12-16T02:25:50.282Z,0
2017-12-16T02:26:59.779Z,0
2017-12-16T02:28:09.243Z,0
2017-12-16T02:29:18.752Z,0
2017-12-16T02:30:27.966Z,0
2017-12-16T02:31:37.182Z,0
2017-12-16T02:32:46.390Z,0
2017-12-16T02:33:55.623Z,0
2017-12-16T02:35:04.854Z,0
2017-12-16T02:36:14.088Z,0
2017-12-16T02:37:23.579Z,0
2017-12-16T02:38:32.533Z,0
2017-12-16T02:39:41.758Z,0
2017-12-16T02:40:50.978Z,0
2017-12-16T02:42:00.465Z,0
2017-12-16T02:43:09.671Z,0
2017-12-16T02:44:19.157Z,0
2017-12-16T02:45:28.383Z,0
2017-12-16T02:46:37.329Z,0
2017-12-16T02:47:46.805Z,0
2017-12-16T02:48:56.025Z,0
2017-12-16T02:50:05.238Z,0
2017-12-16T02:51:14.460Z,0
2017-12-16T02:52:23.683Z,0
2017-12-16T02:53:33.173Z,0
2017-12-16T02:54:42.130Z,0
2017-12-16T02:55:51.345Z,0
2017-12-16T02:57:01.373Z,0
2017-12-16T02:58:10.607Z,0
2017-12-16T02:59:20.088Z,0
2017-12-16T03:00:29.299Z,0
2017-12-16T03:01:38.244Z,0
2017-12-16T03:02:47.187Z,0
2017-12-16T03:03:56.398Z,0
2017-12-16T03:05:05.630Z,0
2017-12-16T03:06:14.605Z,0
2017-12-16T03:07:24.607Z,0
2017-12-16T03:08:33.325Z,0
2017-12-16T03:09:42.295Z,0
2017-12-16T03:10:51.793Z,0
2017-12-16T03:12:01.082Z,0
2017-12-16T03:13:10.498Z,0
2017-12-16T03:14:19.442Z,0
2017-12-16T03:15:28.386Z,0
2017-12-16T03:16:37.323Z,0
2017-12-16T03:17:47.066Z,0
2017-12-16T03:18:55.800Z,0
2017-12-16T03:20:05.558Z,0
2017-12-16T03:21:14.242Z,0
2017-12-16T03:22:23.464Z,0
2017-12-16T03:23:32.682Z,0
2017-12-16T03:24:42.172Z,0
2017-12-16T03:25:51.388Z,0
2017-12-16T03:27:01.130Z,0
2017-12-16T03:28:10.340Z,0
2017-12-16T03:29:20.075Z,0
2017-12-16T03:30:29.811Z,0
2017-12-16T03:31:39.032Z,0
2017-12-16T03:32:47.976Z,0
2017-12-16T03:33:57.440Z,0
2017-12-16T03:35:06.900Z,0
2017-12-16T03:36:16.113Z,0
2017-12-16T03:37:25.336Z,0
2017-12-16T03:38:34.331Z,0
2017-12-16T03:39:43.563Z,0
2017-12-16T03:40:52.511Z,0
2017-12-16T03:42:01.467Z,0
2017-12-16T03:43:10.679Z,0
2017-12-16T03:44:19.884Z,0
2017-12-16T03:45:29.079Z,0
2017-12-16T03:46:38.289Z,0
2017-12-16T03:47:47.229Z,0
2017-12-16T03:48:56.468Z,0
2017-12-16T03:50:05.159Z,0
2017-12-16T03:51:14.106Z,0
2017-12-16T03:52:23.891Z,0
2017-12-16T03:53:32.849Z,0
2017-12-16T03:54:42.078Z,0
2017-12-16T03:55:50.755Z,0
2017-12-16T03:56:59.970Z,0
2017-12-16T03:58:08.668Z,0
2017-12-16T03:59:17.889Z,0
2017-12-16T04:00:27.169Z,0
2017-12-16T04:01:35.860Z,0
2017-12-16T04:02:45.080Z,0
2017-12-16T04:03:54.042Z,0
2017-12-16T04:05:03.548Z,0
2017-12-16T04:06:12.514Z,0
2017-12-16T04:07:21.994Z,0
2017-12-16T04:08:31.241Z,0
2017-12-16T04:09:40.204Z,0
2017-12-16T04:10:49.166Z,0
2017-12-16T04:11:58.372Z,0
2017-12-16T04:13:07.331Z,0
2017-12-16T04:14:16.542Z,0
2017-12-16T04:15:25.510Z,0
2017-12-16T04:16:34.455Z,0
2017-12-16T04:17:43.393Z,0
2017-12-16T04:18:52.076Z,0
2017-12-16T04:20:01.046Z,0
2017-12-16T04:21:09.726Z,0
2017-12-16T04:22:18.923Z,0
2017-12-16T04:23:28.126Z,0
2017-12-16T04:24:37.067Z,0
2017-12-16T04:25:46.539Z,0
2017-12-16T04:26:55.517Z,0
2017-12-16T04:28:04.477Z,0
2017-12-16T04:29:13.414Z,0
2017-12-16T04:30:22.437Z,0
2017-12-16T04:31:31.143Z,0
2017-12-16T04:32:40.356Z,0
2017-12-16T04:33:49.580Z,0
2017-12-16T04:34:58.534Z,0
2017-12-16T04:36:07.812Z,0
2017-12-16T04:37:17.008Z,0
2017-12-16T04:38:25.972Z,0
2017-12-16T04:39:35.225Z,0
2017-12-16T04:40:43.908Z,0
2017-12-16T04:41:53.115Z,0
2017-12-16T04:43:02.145Z,0
2017-12-16T04:44:11.625Z,0
2017-12-16T04:45:20.576Z,0
2017-12-16T04:46:30.589Z,0
2017-12-16T04:47:39.296Z,0
2017-12-16T04:48:48.273Z,0
2017-12-16T04:49:57.230Z,0
2017-12-16T04:51:06.182Z,0
2017-12-16T04:52:14.862Z,0
2017-12-16T04:53:24.124Z,0
2017-12-16T04:54:33.600Z,0
2017-12-16T04:55:42.543Z,0
2017-12-16T04:56:51.483Z,0
2017-12-16T04:58:00.682Z,0
2017-12-16T04:59:09.890Z,0
2017-12-16T05:00:18.572Z,0
2017-12-16T05:01:27.791Z,0
2017-12-16T05:02:37.004Z,0
2017-12-16T05:03:46.242Z,0
2017-12-16T05:04:55.179Z,0
2017-12-16T05:06:04.122Z,0
2017-12-16T05:07:13.593Z,0
2017-12-16T05:08:22.797Z,0
2017-12-16T05:09:32.019Z,0
2017-12-16T05:10:40.984Z,0
2017-12-16T05:11:49.647Z,0
2017-12-16T05:12:58.580Z,0
2017-12-16T05:14:08.071Z,0
2017-12-16T05:15:17.043Z,0
2017-12-16T05:16:25.999Z,0
2017-12-16T05:17:35.198Z,0
2017-12-16T05:18:44.705Z,0
2017-12-16T05:19:53.928Z,0
2017-12-16T05:21:02.602Z,0
2017-12-16T05:22:11.544Z,0
2017-12-16T05:23:21.062Z,0
2017-12-16T05:24:29.759Z,0
2017-12-16T05:25:38.470Z,0
2017-12-16T05:26:47.415Z,0
2017-12-16T05:27:56.369Z,0
2017-12-16T05:29:05.565Z,0
2017-12-16T05:30:14.265Z,0
2017-12-16T05:31:23.745Z,0
2017-12-16T05:32:32.946Z,0
2017-12-16T05:33:41.708Z,0
2017-12-16T05:34:50.911Z,0
2017-12-16T05:35:59.856Z,0
2017-12-16T05:37:09.076Z,0
2017-12-16T05:38:18.061Z,0
2017-12-16T05:39:27.290Z,0
2017-12-16T05:40:35.968Z,0
2017-12-16T05:41:45.440Z,0
2017-12-16T05:42:54.390Z,0
2017-12-16T05:44:03.606Z,0
2017-12-16T05:45:12.801Z,0
2017-12-16T05:46:21.776Z,0
2017-12-16T05:47:31.279Z,0
2017-12-16T05:48:40.487Z,0
2017-12-16T05:49:49.710Z,0
2017-12-16T05:50:58.919Z,0
2017-12-16T05:52:07.636Z,0
2017-12-16T05:53:17.099Z,0
2017-12-16T05:54:25.788Z,0
2017-12-16T05:55:34.744Z,0
2017-12-16T05:56:43.722Z,0
2017-12-16T05:57:52.680Z,0
2017-12-16T05:59:01.901Z,0
2017-12-16T06:00:11.138Z,0
2017-12-16T06:01:20.345Z,0
2017-12-16T06:02:29.553Z,0
2017-12-16T06:03:38.773Z,0
2017-12-16T06:04:48.266Z,0
2017-12-16T06:05:56.961Z,0
2017-12-16T06:07:06.179Z,0
2017-12-16T06:08:15.477Z,0
2017-12-16T06:09:24.431Z,0
2017-12-16T06:10:33.171Z,0
2017-12-16T06:11:42.640Z,0
2017-12-16T06:12:51.590Z,0
2017-12-16T06:14:00.277Z,0
2017-12-16T06:15:09.750Z,0
2017-12-16T06:16:18.708Z,0
2017-12-16T06:17:27.932Z,0
2017-12-16T06:18:37.428Z,0
2017-12-16T06:19:46.632Z,0
2017-12-16T06:20:55.847Z,0
2017-12-16T06:22:04.535Z,0
2017-12-16T06:23:13.494Z,0
2017-12-16T06:24:22.703Z,0
2017-12-16T06:25:31.382Z,0
2017-12-16T06:26:40.348Z,0
2017-12-16T06:27:49.609Z,0
2017-12-16T06:28:58.549Z,0
2017-12-16T06:30:07.518Z,0
2017-12-16T06:31:16.720Z,0
2017-12-16T06:32:26.213Z,0
2017-12-16T06:33:35.150Z,0
2017-12-16T06:34:44.099Z,0
2017-12-16T06:35:53.306Z,0
2017-12-16T06:37:02.517Z,0
2017-12-16T06:38:11.739Z,0
2017-12-16T06:39:21.496Z,0
2017-12-16T06:40:30.451Z,0
2017-12-16T06:41:39.402Z,0
2017-12-16T06:42:48.887Z,0
2017-12-16T06:43:57.825Z,0
2017-12-16T06:45:06.797Z,0
2017-12-16T06:46:15.482Z,0
2017-12-16T06:47:24.702Z,0
2017-12-16T06:48:33.651Z,0
2017-12-16T06:49:42.862Z,0
2017-12-16T06:50:52.614Z,0
2017-12-16T06:52:02.097Z,0
2017-12-16T06:53:11.055Z,0
2017-12-16T06:54:20.334Z,0
2017-12-16T06:55:29.556Z,0
2017-12-16T06:56:38.771Z,0
2017-12-16T06:57:47.976Z,0
2017-12-16T06:58:56.929Z,0
2017-12-16T07:00:06.414Z,0
2017-12-16T07:01:15.626Z,0
2017-12-16T07:02:24.870Z,0
2017-12-16T07:03:34.344Z,0
2017-12-16T07:04:43.036Z,0
2017-12-16T07:05:51.975Z,0
2017-12-16T07:07:00.945Z,0
2017-12-16T07:08:10.152Z,0
2017-12-16T07:09:19.103Z,0
2017-12-16T07:10:27.792Z,0
2017-12-16T07:11:37.029Z,0
2017-12-16T07:12:46.235Z,0
2017-12-16T07:13:55.443Z,0
2017-12-16T07:15:04.729Z,0
2017-12-16T07:16:13.666Z,0
2017-12-16T07:17:23.154Z,0
2017-12-16T07:18:32.102Z,0
2017-12-16T07:19:41.332Z,0
2017-12-16T07:20:50.015Z,0
2017-12-16T07:21:59.492Z,0
2017-12-16T07:23:08.737Z,0
2017-12-16T07:24:18.017Z,0
2017-12-16T07:25:27.224Z,0
2017-12-16T07:26:36.875Z,0
2017-12-16T07:27:45.905Z,0
2017-12-16T07:28:55.129Z,0
2017-12-16T07:30:04.086Z,0
2017-12-16T07:31:12.783Z,0
2017-12-16T07:32:21.464Z,0
2017-12-16T07:33:30.408Z,0
2017-12-16T07:34:39.600Z,0
2017-12-16T07:35:48.572Z,0
2017-12-16T07:36:58.061Z,0
2017-12-16T07:38:07.262Z,0
2017-12-16T07:39:16.486Z,0
2017-12-16T07:40:25.689Z,0
2017-12-16T07:41:34.909Z,0
2017-12-16T07:42:43.602Z,0
2017-12-16T07:43:52.819Z,0
2017-12-16T07:45:02.040Z,0
2017-12-16T07:46:11.551Z,0
2017-12-16T07:47:21.070Z,0
2017-12-16T07:48:30.020Z,0
2017-12-16T07:49:39.247Z,0
2017-12-16T07:50:48.473Z,0
2017-12-16T07:51:57.422Z,0
2017-12-16T07:53:06.121Z,0
2017-12-16T07:54:15.343Z,0
2017-12-16T07:55:24.315Z,0
2017-12-16T07:56:33.262Z,0
2017-12-16T07:57:42.208Z,0
2017-12-16T07:58:50.903Z,0
2017-12-16T08:00:00.106Z,0
2017-12-16T08:01:09.050Z,0
2017-12-16T08:02:17.740Z,0
2017-12-16T08:03:27.001Z,0
2017-12-16T08:04:35.953Z,0
2017-12-16T08:05:45.412Z,0
2017-12-16T08:06:54.687Z,0
2017-12-16T08:08:03.896Z,0
2017-12-16T08:09:12.843Z,0
2017-12-16T08:10:21.886Z,0
2017-12-16T08:11:31.095Z,0
2017-12-16T08:12:40.033Z,0
2017-12-16T08:13:49.005Z,0
2017-12-16T08:14:58.222Z,0
2017-12-16T08:16:07.170Z,0
2017-12-16T08:17:16.700Z,0
2017-12-16T08:18:25.462Z,0
2017-12-16T08:19:34.667Z,0
2017-12-16T08:20:43.622Z,0
2017-12-16T08:21:52.564Z,0
2017-12-16T08:23:01.785Z,5
2017-12-16T08:24:11.028Z,5
2017-12-16T08:25:19.721Z,5
2017-12-16T08:26:29.249Z,5
2017-12-16T08:27:38.205Z,5
2017-12-16T08:28:47.159Z,0
2017-12-16T08:29:56.139Z,5
2017-12-16T08:31:04.837Z,0
2017-12-16T08:32:13.538Z,5
2017-12-16T08:33:22.494Z,5
2017-12-16T08:34:31.191Z,5
2017-12-16T08:35:40.522Z,5
2017-12-16T08:36:49.538Z,5
2017-12-16T08:37:59.003Z,10
2017-12-16T08:39:07.699Z,10
2017-12-16T08:40:16.650Z,10
2017-12-16T08:41:25.877Z,10
2017-12-16T08:42:34.606Z,10
2017-12-16T08:43:43.813Z,10
2017-12-16T08:44:53.690Z,5
2017-12-16T08:46:02.701Z,5
2017-12-16T08:47:11.801Z,5
2017-12-16T08:48:21.937Z,5
2017-12-16T08:49:31.859Z,5
2017-12-16T08:50:41.666Z,5
2017-12-16T08:51:51.243Z,5
2017-12-16T08:53:00.247Z,10
2017-12-16T08:54:09.782Z,10
2017-12-16T08:55:19.004Z,10
2017-12-16T08:56:27.716Z,15
2017-12-16T08:57:36.684Z,15
2017-12-16T08:58:45.653Z,15
2017-12-16T08:59:54.874Z,10
2017-12-16T09:01:03.867Z,10
2017-12-16T09:02:13.110Z,10
2017-12-16T09:03:22.587Z,10
2017-12-16T09:04:31.849Z,10
2017-12-16T09:05:41.634Z,10
2017-12-16T09:06:50.331Z,10
2017-12-16T09:07:59.825Z,10
2017-12-16T09:09:09.331Z,10
2017-12-16T09:10:18.280Z,15
2017-12-16T09:11:27.511Z,15
2017-12-16T09:12:36.202Z,15
2017-12-16T09:13:45.415Z,10
2017-12-16T09:14:55.423Z,10
2017-12-16T09:16:04.685Z,5
2017-12-16T09:17:13.982Z,10
2017-12-16T09:18:23.203Z,15
2017-12-16T09:19:32.523Z,15
2017-12-16T09:20:41.755Z,15
2017-12-16T09:21:51.229Z,15
2017-12-16T09:23:00.457Z,15
2017-12-16T09:24:09.934Z,15
2017-12-16T09:25:18.896Z,15
2017-12-16T09:26:27.585Z,15
2017-12-16T09:27:36.531Z,15
2017-12-16T09:28:45.516Z,20
2017-12-16T09:29:54.475Z,30
2017-12-16T09:31:03.431Z,35
2017-12-16T09:32:12.663Z,25
2017-12-16T09:33:22.002Z,20
2017-12-16T09:34:30.721Z,15
2017-12-16T09:35:39.906Z,15
2017-12-16T09:36:48.912Z,15
2017-12-16T09:37:58.112Z,15
2017-12-16T09:39:06.870Z,15
2017-12-16T09:40:15.585Z,15
2017-12-16T09:41:24.559Z,20
2017-12-16T09:42:33.327Z,20
2017-12-16T09:43:42.547Z,15
2017-12-16T09:44:52.022Z,15
2017-12-16T09:46:01.249Z,15
2017-12-16T09:47:10.754Z,15
2017-12-16T09:48:19.771Z,15
2017-12-16T09:49:28.745Z,20
2017-12-16T09:50:37.762Z,20
2017-12-16T09:51:46.742Z,20
2017-12-16T09:52:56.235Z,20
2017-12-16T09:54:05.185Z,15
2017-12-16T09:55:14.142Z,15
2017-12-16T09:56:23.733Z,15
2017-12-16T09:57:32.663Z,20
2017-12-16T09:58:41.983Z,25
2017-12-16T09:59:51.480Z,25
2017-12-16T10:01:00.423Z,25
2017-12-16T10:02:09.414Z,30
2017-12-16T10:03:18.903Z,25
2017-12-16T10:04:28.138Z,25
2017-12-16T10:05:37.626Z,20
2017-12-16T10:06:46.634Z,20
2017-12-16T10:07:56.089Z,15
2017-12-16T10:09:05.370Z,20
2017-12-16T10:10:14.919Z,20
2017-12-16T10:11:24.439Z,20
2017-12-16T10:12:33.391Z,20
2017-12-16T10:13:43.144Z,20
2017-12-16T10:14:53.197Z,20
2017-12-16T10:16:02.476Z,15
2017-12-16T10:17:11.411Z,20
2017-12-16T10:18:20.354Z,25
2017-12-16T10:19:29.300Z,25
2017-12-16T10:20:39.211Z,25
2017-12-16T10:21:47.968Z,20
2017-12-16T10:22:58.017Z,15
2017-12-16T10:24:06.918Z,15
2017-12-16T10:25:15.603Z,15
2017-12-16T10:26:25.733Z,20
2017-12-16T10:27:34.745Z,25
2017-12-16T10:28:43.732Z,25
2017-12-16T10:29:52.945Z,20
2017-12-16T10:31:01.704Z,15
2017-12-16T10:32:10.927Z,15
2017-12-16T10:33:20.227Z,15
2017-12-16T10:34:29.707Z,15
2017-12-16T10:35:38.491Z,15
2017-12-16T10:36:47.456Z,15
2017-12-16T10:37:56.416Z,15
2017-12-16T10:39:05.915Z,20
2017-12-16T10:40:15.432Z,20
2017-12-16T10:41:24.134Z,20
2017-12-16T10:42:33.895Z,20
2017-12-16T10:43:43.309Z,20
2017-12-16T10:44:52.273Z,20
2017-12-16T10:46:01.232Z,20
2017-12-16T10:47:10.461Z,20
2017-12-16T10:48:19.707Z,20
2017-12-16T10:49:29.215Z,15
2017-12-16T10:50:38.174Z,15
2017-12-16T10:51:46.910Z,15
2017-12-16T10:52:55.894Z,15
2017-12-16T10:54:04.892Z,15
2017-12-16T10:55:14.938Z,15
2017-12-16T10:56:23.883Z,20
2017-12-16T10:57:32.996Z,20
2017-12-16T10:58:42.264Z,20
2017-12-16T10:59:51.519Z,20
2017-12-16T11:01:01.008Z,20
2017-12-16T11:02:09.742Z,20
2017-12-16T11:03:18.456Z,20
2017-12-16T11:04:27.459Z,20
2017-12-16T11:05:37.221Z,20
2017-12-16T11:06:46.547Z,20
2017-12-16T11:07:55.264Z,20
2017-12-16T11:09:04.319Z,20
2017-12-16T11:10:13.549Z,15
2017-12-16T11:11:22.528Z,15
2017-12-16T11:12:31.491Z,15
2017-12-16T11:13:40.467Z,20
2017-12-16T11:14:49.437Z,20
2017-12-16T11:15:58.955Z,15
2017-12-16T11:17:07.638Z,15
2017-12-16T11:18:16.678Z,15
2017-12-16T11:19:25.725Z,15
2017-12-16T11:20:34.703Z,15
2017-12-16T11:21:43.416Z,15
2017-12-16T11:22:52.377Z,15
2017-12-16T11:24:01.899Z,15
2017-12-16T11:25:11.444Z,15
2017-12-16T11:26:20.299Z,20
2017-12-16T11:27:29.906Z,20
2017-12-16T11:28:39.232Z,25
2017-12-16T11:29:48.288Z,25
2017-12-16T11:30:57.814Z,25
2017-12-16T11:32:07.126Z,25
2017-12-16T11:33:15.911Z,20
2017-12-16T11:34:24.597Z,20
2017-12-16T11:35:33.566Z,20
2017-12-16T11:36:42.538Z,20
2017-12-16T11:37:51.499Z,20
2017-12-16T11:39:00.965Z,20
2017-12-16T11:40:10.189Z,20
2017-12-16T11:41:19.719Z,20
2017-12-16T11:42:29.260Z,20
2017-12-16T11:43:38.534Z,20
2017-12-16T11:44:47.232Z,20
2017-12-16T11:45:55.971Z,20
2017-12-16T11:47:04.952Z,20
2017-12-16T11:48:14.199Z,15
2017-12-16T11:49:23.175Z,15
2017-12-16T11:50:32.163Z,20
2017-12-16T11:51:40.869Z,25
2017-12-16T11:52:49.885Z,20
2017-12-16T11:53:58.851Z,15
2017-12-16T11:55:07.877Z,15
2017-12-16T11:56:16.645Z,15
2017-12-16T11:57:25.915Z,15
2017-12-16T11:58:35.150Z,15
2017-12-16T11:59:44.155Z,15
2017-12-16T12:00:53.403Z,15
2017-12-16T12:02:02.919Z,15
2017-12-16T12:03:11.923Z,15
2017-12-16T12:04:20.928Z,15
2017-12-16T12:05:29.885Z,15
2017-12-16T12:06:39.361Z,15
2017-12-16T12:07:48.052Z,15
2017-12-16T12:08:57.294Z,25
2017-12-16T12:10:07.062Z,25
2017-12-16T12:11:16.041Z,30
2017-12-16T12:12:25.010Z,30
2017-12-16T12:13:34.281Z,25
2017-12-16T12:14:43.528Z,15
2017-12-16T12:15:52.488Z,15
2017-12-16T12:17:01.780Z,15
2017-12-16T12:18:11.280Z,15
2017-12-16T12:19:20.749Z,15
2017-12-16T12:20:29.474Z,15
2017-12-16T12:21:38.949Z,10
2017-12-16T12:22:48.156Z,10
2017-12-16T12:23:57.368Z,15
2017-12-16T12:25:06.079Z,15
2017-12-16T12:26:15.035Z,15
2017-12-16T12:27:24.009Z,15
2017-12-16T12:28:33.401Z,15
2017-12-16T12:29:42.365Z,15
2017-12-16T12:30:51.586Z,15
2017-12-16T12:32:00.672Z,20
2017-12-16T12:33:11.078Z,15
2017-12-16T12:34:21.018Z,15
2017-12-16T12:35:29.745Z,15
2017-12-16T12:36:38.740Z,15
2017-12-16T12:37:47.722Z,15
2017-12-16T12:38:57.465Z,10
2017-12-16T12:40:06.433Z,10
2017-12-16T12:41:15.920Z,10
2017-12-16T12:42:25.135Z,10
2017-12-16T12:43:34.351Z,10
2017-12-16T12:44:43.569Z,15
2017-12-16T12:45:52.787Z,15
2017-12-16T12:47:01.494Z,20
2017-12-16T12:48:10.444Z,25
2017-12-16T12:49:19.949Z,25
2017-12-16T12:50:29.430Z,25
2017-12-16T12:51:38.125Z,25
2017-12-16T12:52:47.099Z,25
2017-12-16T12:53:56.339Z,20
2017-12-16T12:55:05.544Z,15
2017-12-16T12:56:15.050Z,10
2017-12-16T12:57:24.266Z,10
2017-12-16T12:58:33.723Z,10
2017-12-16T12:59:42.414Z,10
2017-12-16T13:00:51.385Z,10
2017-12-16T13:02:00.594Z,5
2017-12-16T13:03:09.897Z,10
2017-12-16T13:04:18.922Z,10
2017-12-16T13:05:27.863Z,10
2017-12-16T13:06:36.566Z,10
2017-12-16T13:07:45.299Z,10
2017-12-16T13:08:54.500Z,10
2017-12-16T13:10:03.191Z,10
2017-12-16T13:11:12.966Z,10
2017-12-16T13:12:21.765Z,10
2017-12-16T13:13:30.729Z,10
2017-12-16T13:14:40.217Z,10
2017-12-16T13:15:48.914Z,10
2017-12-16T13:16:57.877Z,10
2017-12-16T13:18:06.834Z,10
2017-12-16T13:19:15.787Z,10
2017-12-16T13:20:25.346Z,10
2017-12-16T13:21:34.061Z,10
2017-12-16T13:22:43.590Z,10
2017-12-16T13:23:52.797Z,10
2017-12-16T13:25:01.782Z,10
2017-12-16T13:26:10.746Z,10
2017-12-16T13:27:20.015Z,10
2017-12-16T13:28:29.242Z,10
2017-12-16T13:29:38.462Z,10
2017-12-16T13:30:47.933Z,10
2017-12-16T13:31:56.896Z,10
2017-12-16T13:33:05.661Z,10
2017-12-16T13:34:14.363Z,10
2017-12-16T13:35:23.598Z,10
2017-12-16T13:36:32.305Z,10
2017-12-16T13:37:41.825Z,10
2017-12-16T13:38:51.352Z,10
2017-12-16T13:40:00.299Z,10
2017-12-16T13:41:09.638Z,10
2017-12-16T13:42:18.605Z,10
2017-12-16T13:43:28.027Z,10
2017-12-16T13:44:37.057Z,10
2017-12-16T13:45:46.016Z,10
2017-12-16T13:46:54.713Z,10
2017-12-16T13:48:03.932Z,10
2017-12-16T13:49:12.908Z,10
2017-12-16T13:50:21.880Z,10
2017-12-16T13:51:30.905Z,10
2017-12-16T13:52:39.611Z,10
2017-12-16T13:53:49.108Z,10
2017-12-16T13:54:58.058Z,10
2017-12-16T13:56:07.553Z,10
2017-12-16T13:57:16.513Z,10
2017-12-16T13:58:25.498Z,10
2017-12-16T13:59:34.755Z,5
2017-12-16T14:00:44.440Z,5
2017-12-16T14:01:54.008Z,5
2017-12-16T14:03:02.952Z,5
2017-12-16T14:04:11.653Z,5
2017-12-16T14:05:20.647Z,5
2017-12-16T14:06:29.595Z,5
2017-12-16T14:07:38.615Z,5
2017-12-16T14:08:47.335Z,5
2017-12-16T14:09:56.851Z,5
2017-12-16T14:11:05.550Z,5
2017-12-16T14:12:14.804Z,5
2017-12-16T14:13:23.496Z,5
2017-12-16T14:14:32.970Z,5
2017-12-16T14:15:43.033Z,5
2017-12-16T14:16:52.241Z,5
2017-12-16T14:18:01.226Z,5
2017-12-16T14:19:10.754Z,5
2017-12-16T14:20:19.986Z,5
2017-12-16T14:21:28.944Z,5
2017-12-16T14:22:38.518Z,5
2017-12-16T14:23:47.468Z,5
2017-12-16T14:24:56.195Z,5
2017-12-16T14:26:05.169Z,5
2017-12-16T14:27:14.407Z,5
2017-12-16T14:28:23.104Z,5
2017-12-16T14:29:32.344Z,5
2017-12-16T14:30:41.705Z,5
2017-12-16T14:31:50.652Z,5
2017-12-16T14:32:59.689Z,5
2017-12-16T14:34:08.664Z,5
2017-12-16T14:35:17.858Z,5
2017-12-16T14:36:26.809Z,5
2017-12-16T14:37:36.033Z,5
2017-12-16T14:38:45.025Z,5
2017-12-16T14:39:54.233Z,5
2017-12-16T14:41:03.178Z,5
2017-12-16T14:42:12.390Z,5
2017-12-16T14:43:21.668Z,5
2017-12-16T14:44:30.929Z,5
2017-12-16T14:45:39.966Z,0
2017-12-16T14:46:49.218Z,0
2017-12-16T14:47:58.501Z,0
2017-12-16T14:49:07.475Z,0
2017-12-16T14:50:16.152Z,0
2017-12-16T14:51:25.108Z,0
2017-12-16T14:52:34.954Z,0
2017-12-16T14:53:43.924Z,0
2017-12-16T14:54:53.690Z,0
2017-12-16T14:56:03.186Z,0
2017-12-16T14:57:13.207Z,0
2017-12-16T14:58:22.197Z,0
2017-12-16T14:59:32.102Z,0
2017-12-16T15:00:41.835Z,0
2017-12-16T15:01:50.797Z,0
2017-12-16T15:03:00.113Z,0
2017-12-16T15:04:09.856Z,0
2017-12-16T15:05:18.813Z,0
2017-12-16T15:06:28.582Z,0
2017-12-16T15:07:37.612Z,0
2017-12-16T15:08:46.610Z,0
2017-12-16T15:09:55.825Z,0
2017-12-16T15:11:05.375Z,0
2017-12-16T15:12:14.457Z,0
2017-12-16T15:13:23.668Z,0
2017-12-16T15:14:33.164Z,0
2017-12-16T15:15:42.744Z,0
2017-12-16T15:16:51.724Z,0
2017-12-16T15:18:01.352Z,0
2017-12-16T15:19:11.082Z,0
2017-12-16T15:20:20.309Z,0
2017-12-16T15:21:29.545Z,0
2017-12-16T15:22:38.625Z,0
2017-12-16T15:23:47.400Z,0
2017-12-16T15:24:56.078Z,0
2017-12-16T15:26:05.363Z,0
2017-12-16T15:27:14.872Z,0
2017-12-16T15:28:24.355Z,0
2017-12-16T15:29:33.082Z,0
2017-12-16T15:30:42.337Z,0
2017-12-16T15:31:51.678Z,0
2017-12-16T15:33:00.916Z,0
2017-12-16T15:34:10.386Z,0
2017-12-16T15:35:19.370Z,0
2017-12-16T15:36:28.909Z,0
2017-12-16T15:37:37.882Z,0
2017-12-16T15:38:46.859Z,0
2017-12-16T15:39:55.793Z,0
2017-12-16T15:41:04.736Z,0
2017-12-16T15:42:13.450Z,0
2017-12-16T15:43:22.666Z,0
2017-12-16T15:44:31.867Z,0
2017-12-16T15:45:41.330Z,0
2017-12-16T15:46:50.612Z,0
2017-12-16T15:47:59.839Z,0
2017-12-16T15:49:08.785Z,0
2017-12-16T15:50:18.361Z,0
2017-12-16T15:51:27.877Z,0
2017-12-16T15:52:37.110Z,0
2017-12-16T15:53:46.064Z,0
2017-12-16T15:54:54.748Z,0
2017-12-16T15:56:03.968Z,0
2017-12-16T15:57:13.182Z,0
2017-12-16T15:58:22.141Z,0
2017-12-16T15:59:31.658Z,0
2017-12-16T16:00:40.714Z,0
2017-12-16T16:01:49.981Z,0
2017-12-16T16:02:58.730Z,0
2017-12-16T16:04:07.786Z,0
2017-12-16T16:05:16.525Z,0
2017-12-16T16:06:25.584Z,0
2017-12-16T16:07:34.600Z,0
2017-12-16T16:08:44.099Z,0
2017-12-16T16:09:53.580Z,0
2017-12-16T16:11:02.831Z,0
2017-12-16T16:12:11.855Z,0
2017-12-16T16:13:20.842Z,0
2017-12-16T16:14:30.074Z,0
2017-12-16T16:15:39.035Z,0
2017-12-16T16:16:47.986Z,0
2017-12-16T16:17:56.690Z,0
2017-12-16T16:19:05.394Z,0
2017-12-16T16:20:14.348Z,0
2017-12-16T16:21:23.322Z,0
2017-12-16T16:22:32.801Z,0
2017-12-16T16:23:41.820Z,0
2017-12-16T16:24:51.030Z,0
2017-12-16T16:26:00.244Z,0
2017-12-16T16:27:09.476Z,0
2017-12-16T16:28:18.910Z,0
2017-12-16T16:29:27.843Z,0
2017-12-16T16:30:37.312Z,0
2017-12-16T16:31:46.282Z,0
2017-12-16T16:32:55.502Z,0
2017-12-16T16:34:04.240Z,0
2017-12-16T16:35:13.482Z,0
2017-12-16T16:36:22.710Z,0
2017-12-16T16:37:31.686Z,0
2017-12-16T16:38:40.890Z,0
2017-12-16T16:39:49.571Z,0
2017-12-16T16:40:58.597Z,0
2017-12-16T16:42:07.818Z,0
2017-12-16T16:43:17.297Z,0
2017-12-16T16:44:26.507Z,0
2017-12-16T16:45:35.437Z,0
2017-12-16T16:46:44.404Z,0
2017-12-16T16:47:53.625Z,0
2017-12-16T16:49:02.858Z,0
2017-12-16T16:50:12.124Z,0
2017-12-16T16:51:21.351Z,0